sensor_id;sensor_type;location;lat;lon;timestamp;P1;durP1;ratioP1;P2;durP2;ratioP2
65387;SDS011;51992;53.528;49.474;2022-09-09T00:06:21;3.30;;;2.70;;
65387;SDS011;51992;53.528;49.474;2022-09-09T00:11:19;2.25;;;2.00;;
65387;SDS011;51992;53.528;49.474;2022-09-09T00:13:47;2.30;;;2.10;;
65387;SDS011;51992;53.528;49.474;2022-09-09T00:16:15;2.33;;;2.13;;
65387;SDS011;51992;53.528;49.474;2022-09-09T00:21:11;3.35;;;2.10;;
65387;SDS011;51992;53.528;49.474;2022-09-09T00:23:45;1.92;;;1.63;;
65387;SDS011;51992;53.528;49.474;2022-09-09T00:26:20;3.17;;;1.80;;
65387;SDS011;51992;53.528;49.474;2022-09-09T00:28:58;2.03;;;1.85;;
65387;SDS011;51992;53.528;49.474;2022-09-09T00:31:27;2.85;;;2.22;;
65387;SDS011;51992;53.528;49.474;2022-09-09T00:33:53;4.15;;;2.33;;
65387;SDS011;51992;53.528;49.474;2022-09-09T00:36:20;2.38;;;2.10;;
65387;SDS011;51992;53.528;49.474;2022-09-09T00:38:49;2.50;;;2.30;;
65387;SDS011;51992;53.528;49.474;2022-09-09T00:41:37;2.63;;;2.00;;
65387;SDS011;51992;53.528;49.474;2022-09-09T00:46:56;2.90;;;2.03;;
65387;SDS011;51992;53.528;49.474;2022-09-09T00:49:35;5.82;;;2.63;;
65387;SDS011;51992;53.528;49.474;2022-09-09T00:57:17;2.92;;;2.17;;
65387;SDS011;51992;53.528;49.474;2022-09-09T00:59:52;8.52;;;3.03;;
65387;SDS011;51992;53.528;49.474;2022-09-09T01:04:47;4.03;;;1.90;;
65387;SDS011;51992;53.528;49.474;2022-09-09T01:07:16;2.80;;;1.92;;
65387;SDS011;51992;53.528;49.474;2022-09-09T01:09:50;3.05;;;1.98;;
65387;SDS011;51992;53.528;49.474;2022-09-09T01:12:23;3.22;;;2.47;;
65387;SDS011;51992;53.528;49.474;2022-09-09T01:14:51;4.63;;;2.60;;
65387;SDS011;51992;53.528;49.474;2022-09-09T01:17:20;4.75;;;2.90;;
65387;SDS011;51992;53.528;49.474;2022-09-09T01:19:52;4.00;;;2.60;;
65387;SDS011;51992;53.528;49.474;2022-09-09T01:27:32;21.10;;;3.90;;
65387;SDS011;51992;53.528;49.474;2022-09-09T01:29:59;29.20;;;4.28;;
65387;SDS011;51992;53.528;49.474;2022-09-09T01:32:44;28.98;;;4.65;;
65387;SDS011;51992;53.528;49.474;2022-09-09T01:35:12;21.08;;;4.28;;
65387;SDS011;51992;53.528;49.474;2022-09-09T01:37:40;24.90;;;4.45;;
65387;SDS011;51992;53.528;49.474;2022-09-09T01:40:06;31.00;;;4.85;;
65387;SDS011;51992;53.528;49.474;2022-09-09T01:42:32;26.80;;;5.95;;
65387;SDS011;51992;53.528;49.474;2022-09-09T01:44:58;22.05;;;5.35;;
65387;SDS011;51992;53.528;49.474;2022-09-09T01:47:23;22.45;;;4.90;;
65387;SDS011;51992;53.528;49.474;2022-09-09T01:49:49;14.35;;;3.10;;
65387;SDS011;51992;53.528;49.474;2022-09-09T01:52:15;22.48;;;4.28;;
65387;SDS011;51992;53.528;49.474;2022-09-09T01:54:41;42.25;;;6.68;;
65387;SDS011;51992;53.528;49.474;2022-09-09T01:57:26;37.25;;;6.50;;
65387;SDS011;51992;53.528;49.474;2022-09-09T02:04:48;26.75;;;5.78;;
65387;SDS011;51992;53.528;49.474;2022-09-09T02:07:21;23.17;;;5.13;;
65387;SDS011;51992;53.528;49.474;2022-09-09T02:09:54;22.80;;;5.40;;
65387;SDS011;51992;53.528;49.474;2022-09-09T02:12:22;16.23;;;4.20;;
65387;SDS011;51992;53.528;49.474;2022-09-09T02:14:52;5.03;;;3.03;;
65387;SDS011;51992;53.528;49.474;2022-09-09T02:17:26;8.18;;;3.22;;
65387;SDS011;51992;53.528;49.474;2022-09-09T02:19:56;6.28;;;3.03;;
65387;SDS011;51992;53.528;49.474;2022-09-09T02:22:23;7.20;;;3.25;;
65387;SDS011;51992;53.528;49.474;2022-09-09T02:24:50;5.50;;;3.22;;
65387;SDS011;51992;53.528;49.474;2022-09-09T02:27:17;7.22;;;3.17;;
65387;SDS011;51992;53.528;49.474;2022-09-09T02:29:44;48.17;;;7.18;;
65387;SDS011;51992;53.528;49.474;2022-09-09T02:32:16;55.58;;;8.50;;
65387;SDS011;51992;53.528;49.474;2022-09-09T02:34:45;43.42;;;8.50;;
65387;SDS011;51992;53.528;49.474;2022-09-09T02:37:12;28.75;;;6.75;;
65387;SDS011;51992;53.528;49.474;2022-09-09T02:39:38;11.02;;;4.63;;
65387;SDS011;51992;53.528;49.474;2022-09-09T02:42:04;10.32;;;4.90;;
65387;SDS011;51992;53.528;49.474;2022-09-09T02:44:30;9.15;;;4.60;;
65387;SDS011;51992;53.528;49.474;2022-09-09T02:52:15;15.05;;;5.13;;
65387;SDS011;51992;53.528;49.474;2022-09-09T02:54:42;12.63;;;5.25;;
65387;SDS011;51992;53.528;49.474;2022-09-09T02:57:22;10.70;;;4.60;;
65387;SDS011;51992;53.528;49.474;2022-09-09T02:59:48;8.63;;;4.30;;
65387;SDS011;51992;53.528;49.474;2022-09-09T03:02:15;8.40;;;4.43;;
65387;SDS011;51992;53.528;49.474;2022-09-09T03:04:41;11.95;;;4.95;;
65387;SDS011;51992;53.528;49.474;2022-09-09T03:07:10;8.30;;;4.22;;
65387;SDS011;51992;53.528;49.474;2022-09-09T03:09:36;9.35;;;4.78;;
65387;SDS011;51992;53.528;49.474;2022-09-09T03:12:01;9.27;;;4.47;;
65387;SDS011;51992;53.528;49.474;2022-09-09T03:14:29;6.47;;;3.85;;
65387;SDS011;51992;53.528;49.474;2022-09-09T03:16:55;26.33;;;5.35;;
65387;SDS011;51992;53.528;49.474;2022-09-09T03:19:23;44.92;;;6.97;;
65387;SDS011;51992;53.528;49.474;2022-09-09T03:21:49;39.03;;;5.72;;
65387;SDS011;51992;53.528;49.474;2022-09-09T03:24:17;26.73;;;5.45;;
65387;SDS011;51992;53.528;49.474;2022-09-09T03:26:43;42.92;;;7.47;;
65387;SDS011;51992;53.528;49.474;2022-09-09T03:29:10;41.08;;;7.38;;
65387;SDS011;51992;53.528;49.474;2022-09-09T03:31:38;30.90;;;7.15;;
65387;SDS011;51992;53.528;49.474;2022-09-09T03:34:04;18.15;;;5.03;;
65387;SDS011;51992;53.528;49.474;2022-09-09T03:36:29;17.48;;;5.25;;
65387;SDS011;51992;53.528;49.474;2022-09-09T03:38:55;14.88;;;5.38;;
65387;SDS011;51992;53.528;49.474;2022-09-09T03:41:22;14.48;;;5.45;;
65387;SDS011;51992;53.528;49.474;2022-09-09T03:43:50;19.58;;;5.93;;
65387;SDS011;51992;53.528;49.474;2022-09-09T03:46:16;23.80;;;6.35;;
65387;SDS011;51992;53.528;49.474;2022-09-09T03:48:41;14.50;;;6.10;;
65387;SDS011;51992;53.528;49.474;2022-09-09T03:51:07;12.70;;;5.25;;
65387;SDS011;51992;53.528;49.474;2022-09-09T03:53:33;27.55;;;6.85;;
65387;SDS011;51992;53.528;49.474;2022-09-09T03:55:59;24.52;;;6.90;;
65387;SDS011;51992;53.528;49.474;2022-09-09T03:58:26;14.88;;;5.55;;
65387;SDS011;51992;53.528;49.474;2022-09-09T04:01:11;9.43;;;3.95;;
65387;SDS011;51992;53.528;49.474;2022-09-09T04:03:42;7.57;;;3.83;;
65387;SDS011;51992;53.528;49.474;2022-09-09T04:06:08;7.75;;;4.10;;
65387;SDS011;51992;53.528;49.474;2022-09-09T04:08:34;9.82;;;4.32;;
65387;SDS011;51992;53.528;49.474;2022-09-09T04:11:01;6.43;;;3.95;;
65387;SDS011;51992;53.528;49.474;2022-09-09T04:13:30;8.20;;;4.32;;
65387;SDS011;51992;53.528;49.474;2022-09-09T04:15:57;9.25;;;4.45;;
65387;SDS011;51992;53.528;49.474;2022-09-09T04:18:23;7.97;;;4.30;;
65387;SDS011;51992;53.528;49.474;2022-09-09T04:20:50;4.88;;;3.85;;
65387;SDS011;51992;53.528;49.474;2022-09-09T04:23:16;7.22;;;3.92;;
65387;SDS011;51992;53.528;49.474;2022-09-09T04:25:51;5.75;;;3.78;;
65387;SDS011;51992;53.528;49.474;2022-09-09T04:28:17;8.05;;;4.40;;
65387;SDS011;51992;53.528;49.474;2022-09-09T04:30:43;8.30;;;4.50;;
65387;SDS011;51992;53.528;49.474;2022-09-09T04:33:09;9.75;;;4.20;;
65387;SDS011;51992;53.528;49.474;2022-09-09T04:35:35;10.15;;;4.63;;
65387;SDS011;51992;53.528;49.474;2022-09-09T04:38:01;7.63;;;4.35;;
65387;SDS011;51992;53.528;49.474;2022-09-09T04:40:28;5.78;;;4.30;;
65387;SDS011;51992;53.528;49.474;2022-09-09T04:42:55;10.02;;;4.60;;
65387;SDS011;51992;53.528;49.474;2022-09-09T04:45:21;5.72;;;4.00;;
65387;SDS011;51992;53.528;49.474;2022-09-09T04:47:46;6.18;;;3.65;;
65387;SDS011;51992;53.528;49.474;2022-09-09T04:50:15;14.40;;;4.85;;
65387;SDS011;51992;53.528;49.474;2022-09-09T04:52:42;8.73;;;4.80;;
65387;SDS011;51992;53.528;49.474;2022-09-09T04:55:08;8.27;;;4.55;;
65387;SDS011;51992;53.528;49.474;2022-09-09T04:57:35;5.00;;;3.55;;
65387;SDS011;51992;53.528;49.474;2022-09-09T05:00:00;18.00;;;4.53;;
65387;SDS011;51992;53.528;49.474;2022-09-09T05:02:27;15.77;;;4.85;;
65387;SDS011;51992;53.528;49.474;2022-09-09T05:04:52;7.47;;;3.17;;
65387;SDS011;51992;53.528;49.474;2022-09-09T05:07:18;7.00;;;3.55;;
65387;SDS011;51992;53.528;49.474;2022-09-09T05:09:44;6.47;;;3.60;;
65387;SDS011;51992;53.528;49.474;2022-09-09T05:12:10;14.13;;;4.13;;
65387;SDS011;51992;53.528;49.474;2022-09-09T05:14:36;9.95;;;3.30;;
65387;SDS011;51992;53.528;49.474;2022-09-09T05:17:03;16.63;;;4.43;;
65387;SDS011;51992;53.528;49.474;2022-09-09T05:19:29;6.32;;;3.67;;
65387;SDS011;51992;53.528;49.474;2022-09-09T05:21:56;4.82;;;3.92;;
65387;SDS011;51992;53.528;49.474;2022-09-09T05:24:22;4.75;;;3.60;;
65387;SDS011;51992;53.528;49.474;2022-09-09T05:26:48;11.40;;;3.42;;
65387;SDS011;51992;53.528;49.474;2022-09-09T05:29:14;8.05;;;3.25;;
65387;SDS011;51992;53.528;49.474;2022-09-09T05:31:40;10.70;;;3.75;;
65387;SDS011;51992;53.528;49.474;2022-09-09T05:34:06;8.10;;;3.85;;
65387;SDS011;51992;53.528;49.474;2022-09-09T05:36:32;5.57;;;3.20;;
65387;SDS011;51992;53.528;49.474;2022-09-09T05:38:57;9.60;;;3.42;;
65387;SDS011;51992;53.528;49.474;2022-09-09T05:41:23;14.43;;;4.70;;
65387;SDS011;51992;53.528;49.474;2022-09-09T05:43:49;7.68;;;3.90;;
65387;SDS011;51992;53.528;49.474;2022-09-09T05:46:16;4.18;;;3.00;;
65387;SDS011;51992;53.528;49.474;2022-09-09T05:48:42;4.85;;;3.13;;
65387;SDS011;51992;53.528;49.474;2022-09-09T05:51:10;5.72;;;2.17;;
65387;SDS011;51992;53.528;49.474;2022-09-09T05:53:38;4.32;;;2.58;;
65387;SDS011;51992;53.528;49.474;2022-09-09T05:56:08;14.18;;;3.45;;
65387;SDS011;51992;53.528;49.474;2022-09-09T05:58:36;9.68;;;2.80;;
65387;SDS011;51992;53.528;49.474;2022-09-09T06:01:08;7.53;;;2.90;;
65387;SDS011;51992;53.528;49.474;2022-09-09T06:03:35;6.18;;;2.67;;
65387;SDS011;51992;53.528;49.474;2022-09-09T06:06:02;9.13;;;2.25;;
65387;SDS011;51992;53.528;49.474;2022-09-09T06:08:31;7.80;;;2.65;;
65387;SDS011;51992;53.528;49.474;2022-09-09T06:11:00;3.90;;;2.20;;
65387;SDS011;51992;53.528;49.474;2022-09-09T06:13:27;6.57;;;2.75;;
65387;SDS011;51992;53.528;49.474;2022-09-09T06:15:53;4.40;;;1.92;;
65387;SDS011;51992;53.528;49.474;2022-09-09T06:18:19;4.43;;;1.98;;
65387;SDS011;51992;53.528;49.474;2022-09-09T06:20:57;18.98;;;4.03;;
65387;SDS011;51992;53.528;49.474;2022-09-09T06:23:24;2.75;;;1.92;;
65387;SDS011;51992;53.528;49.474;2022-09-09T06:25:50;2.95;;;1.70;;
65387;SDS011;51992;53.528;49.474;2022-09-09T06:28:17;2.50;;;1.85;;
65387;SDS011;51992;53.528;49.474;2022-09-09T06:30:43;2.80;;;1.67;;
65387;SDS011;51992;53.528;49.474;2022-09-09T06:33:10;1.77;;;1.30;;
65387;SDS011;51992;53.528;49.474;2022-09-09T06:35:35;2.33;;;1.70;;
65387;SDS011;51992;53.528;49.474;2022-09-09T06:38:01;4.18;;;1.63;;
65387;SDS011;51992;53.528;49.474;2022-09-09T06:40:27;4.07;;;1.92;;
65387;SDS011;51992;53.528;49.474;2022-09-09T06:42:52;1.90;;;1.60;;
65387;SDS011;51992;53.528;49.474;2022-09-09T06:45:18;3.95;;;1.77;;
65387;SDS011;51992;53.528;49.474;2022-09-09T06:47:44;7.68;;;3.65;;
65387;SDS011;51992;53.528;49.474;2022-09-09T06:50:10;9.70;;;3.35;;
65387;SDS011;51992;53.528;49.474;2022-09-09T06:52:36;10.20;;;4.13;;
65387;SDS011;51992;53.528;49.474;2022-09-09T06:55:02;10.88;;;4.00;;
65387;SDS011;51992;53.528;49.474;2022-09-09T06:57:29;7.85;;;3.03;;
65387;SDS011;51992;53.528;49.474;2022-09-09T06:59:54;16.52;;;7.32;;
65387;SDS011;51992;53.528;49.474;2022-09-09T07:02:20;10.20;;;6.03;;
65387;SDS011;51992;53.528;49.474;2022-09-09T07:04:46;7.00;;;3.25;;
65387;SDS011;51992;53.528;49.474;2022-09-09T07:07:12;3.42;;;2.38;;
65387;SDS011;51992;53.528;49.474;2022-09-09T07:09:40;4.68;;;1.90;;
65387;SDS011;51992;53.528;49.474;2022-09-09T07:12:06;5.13;;;2.35;;
65387;SDS011;51992;53.528;49.474;2022-09-09T07:14:32;3.47;;;1.85;;
65387;SDS011;51992;53.528;49.474;2022-09-09T07:16:59;3.05;;;1.65;;
65387;SDS011;51992;53.528;49.474;2022-09-09T07:19:25;4.22;;;1.60;;
65387;SDS011;51992;53.528;49.474;2022-09-09T07:21:51;3.25;;;1.70;;
65387;SDS011;51992;53.528;49.474;2022-09-09T07:24:17;5.15;;;1.38;;
65387;SDS011;51992;53.528;49.474;2022-09-09T07:26:42;3.97;;;1.40;;
65387;SDS011;51992;53.528;49.474;2022-09-09T07:29:09;5.55;;;1.35;;
65387;SDS011;51992;53.528;49.474;2022-09-09T07:31:36;1.60;;;1.00;;
65387;SDS011;51992;53.528;49.474;2022-09-09T07:34:02;1.08;;;0.90;;
65387;SDS011;51992;53.528;49.474;2022-09-09T07:36:29;1.65;;;1.08;;
65387;SDS011;51992;53.528;49.474;2022-09-09T07:38:56;2.25;;;0.95;;
65387;SDS011;51992;53.528;49.474;2022-09-09T07:41:26;2.83;;;1.13;;
65387;SDS011;51992;53.528;49.474;2022-09-09T07:43:52;2.72;;;1.33;;
65387;SDS011;51992;53.528;49.474;2022-09-09T07:46:22;4.90;;;1.08;;
65387;SDS011;51992;53.528;49.474;2022-09-09T07:48:48;2.33;;;1.00;;
65387;SDS011;51992;53.528;49.474;2022-09-09T07:51:25;2.22;;;0.82;;
65387;SDS011;51992;53.528;49.474;2022-09-09T07:53:52;1.02;;;0.82;;
65387;SDS011;51992;53.528;49.474;2022-09-09T07:56:18;1.42;;;1.10;;
65387;SDS011;51992;53.528;49.474;2022-09-09T07:58:44;1.85;;;1.02;;
65387;SDS011;51992;53.528;49.474;2022-09-09T08:01:12;2.35;;;0.70;;
65387;SDS011;51992;53.528;49.474;2022-09-09T08:03:38;0.82;;;0.73;;
65387;SDS011;51992;53.528;49.474;2022-09-09T08:06:05;5.68;;;1.25;;
65387;SDS011;51992;53.528;49.474;2022-09-09T08:08:32;0.80;;;0.80;;
65387;SDS011;51992;53.528;49.474;2022-09-09T08:11:06;1.85;;;1.23;;
65387;SDS011;51992;53.528;49.474;2022-09-09T08:13:33;1.42;;;1.00;;
65387;SDS011;51992;53.528;49.474;2022-09-09T08:18:34;1.35;;;1.10;;
65387;SDS011;51992;53.528;49.474;2022-09-09T08:23:32;1.38;;;0.63;;
65387;SDS011;51992;53.528;49.474;2022-09-09T08:26:05;2.15;;;1.10;;
65387;SDS011;51992;53.528;49.474;2022-09-09T08:28:31;2.85;;;0.90;;
65387;SDS011;51992;53.528;49.474;2022-09-09T08:31:04;5.55;;;0.73;;
65387;SDS011;51992;53.528;49.474;2022-09-09T08:33:30;9.93;;;3.67;;
65387;SDS011;51992;53.528;49.474;2022-09-09T08:35:55;15.38;;;2.67;;
65387;SDS011;51992;53.528;49.474;2022-09-09T08:38:21;5.93;;;1.65;;
65387;SDS011;51992;53.528;49.474;2022-09-09T08:40:47;7.63;;;1.40;;
65387;SDS011;51992;53.528;49.474;2022-09-09T08:43:15;7.25;;;1.65;;
65387;SDS011;51992;53.528;49.474;2022-09-09T08:45:48;2.38;;;0.60;;
65387;SDS011;51992;53.528;49.474;2022-09-09T08:50:44;4.65;;;0.68;;
65387;SDS011;51992;53.528;49.474;2022-09-09T08:53:26;5.18;;;0.68;;
65387;SDS011;51992;53.528;49.474;2022-09-09T08:56:14;6.88;;;1.00;;
65387;SDS011;51992;53.528;49.474;2022-09-09T08:58:48;6.03;;;1.00;;
65387;SDS011;51992;53.528;49.474;2022-09-09T09:08:54;0.95;;;0.85;;
65387;SDS011;51992;53.528;49.474;2022-09-09T09:11:24;3.58;;;0.82;;
65387;SDS011;51992;53.528;49.474;2022-09-09T09:16:21;4.22;;;0.90;;
65387;SDS011;51992;53.528;49.474;2022-09-09T09:18:49;7.35;;;1.40;;
65387;SDS011;51992;53.528;49.474;2022-09-09T09:21:19;8.93;;;1.45;;
65387;SDS011;51992;53.528;49.474;2022-09-09T09:23:58;9.55;;;1.80;;
65387;SDS011;51992;53.528;49.474;2022-09-09T09:26:25;2.65;;;0.85;;
65387;SDS011;51992;53.528;49.474;2022-09-09T09:28:53;18.60;;;2.30;;
65387;SDS011;51992;53.528;49.474;2022-09-09T09:31:21;11.57;;;2.38;;
65387;SDS011;51992;53.528;49.474;2022-09-09T09:33:49;10.20;;;1.60;;
65387;SDS011;51992;53.528;49.474;2022-09-09T09:36:16;1.48;;;0.77;;
65387;SDS011;51992;53.528;49.474;2022-09-09T09:38:52;4.65;;;0.68;;
65387;SDS011;51992;53.528;49.474;2022-09-09T09:41:28;2.83;;;0.80;;
65387;SDS011;51992;53.528;49.474;2022-09-09T09:43:54;6.57;;;1.67;;
65387;SDS011;51992;53.528;49.474;2022-09-09T09:46:21;7.82;;;1.40;;
65387;SDS011;51992;53.528;49.474;2022-09-09T09:49:04;4.35;;;1.10;;
65387;SDS011;51992;53.528;49.474;2022-09-09T09:51:31;12.65;;;2.65;;
65387;SDS011;51992;53.528;49.474;2022-09-09T09:56:32;8.68;;;1.50;;
65387;SDS011;51992;53.528;49.474;2022-09-09T09:58:58;9.90;;;1.85;;
65387;SDS011;51992;53.528;49.474;2022-09-09T10:01:28;4.30;;;0.80;;
65387;SDS011;51992;53.528;49.474;2022-09-09T10:03:58;10.88;;;1.38;;
65387;SDS011;51992;53.528;49.474;2022-09-09T10:06:31;8.43;;;1.30;;
65387;SDS011;51992;53.528;49.474;2022-09-09T10:08:58;4.32;;;0.60;;
65387;SDS011;51992;53.528;49.474;2022-09-09T10:11:35;5.30;;;1.20;;
65387;SDS011;51992;53.528;49.474;2022-09-09T10:17:11;3.13;;;0.70;;
65387;SDS011;51992;53.528;49.474;2022-09-09T10:19:38;7.70;;;1.20;;
65387;SDS011;51992;53.528;49.474;2022-09-09T10:22:13;9.70;;;1.55;;
65387;SDS011;51992;53.528;49.474;2022-09-09T10:30:14;1.05;;;0.55;;
65387;SDS011;51992;53.528;49.474;2022-09-09T10:32:49;19.90;;;2.92;;
65387;SDS011;51992;53.528;49.474;2022-09-09T10:35:26;7.95;;;1.48;;
65387;SDS011;51992;53.528;49.474;2022-09-09T10:42:52;7.38;;;1.80;;
65387;SDS011;51992;53.528;49.474;2022-09-09T10:45:22;4.25;;;0.60;;
65387;SDS011;51992;53.528;49.474;2022-09-09T10:50:28;16.08;;;2.55;;
65387;SDS011;51992;53.528;49.474;2022-09-09T10:55:24;4.65;;;2.20;;
65387;SDS011;51992;53.528;49.474;2022-09-09T10:57:56;6.97;;;1.67;;
65387;SDS011;51992;53.528;49.474;2022-09-09T11:00:24;1.53;;;0.97;;
65387;SDS011;51992;53.528;49.474;2022-09-09T11:05:24;7.60;;;1.30;;
65387;SDS011;51992;53.528;49.474;2022-09-09T11:08:17;10.65;;;1.50;;
65387;SDS011;51992;53.528;49.474;2022-09-09T11:10:58;9.05;;;1.55;;
65387;SDS011;51992;53.528;49.474;2022-09-09T11:15:56;5.07;;;1.30;;
65387;SDS011;51992;53.528;49.474;2022-09-09T11:20:53;1.63;;;0.70;;
65387;SDS011;51992;53.528;49.474;2022-09-09T11:23:24;6.55;;;1.50;;
65387;SDS011;51992;53.528;49.474;2022-09-09T11:25:57;3.47;;;0.95;;
65387;SDS011;51992;53.528;49.474;2022-09-09T11:31:44;7.95;;;1.13;;
65387;SDS011;51992;53.528;49.474;2022-09-09T11:34:14;8.75;;;1.50;;
65387;SDS011;51992;53.528;49.474;2022-09-09T11:36:50;3.58;;;1.05;;
65387;SDS011;51992;53.528;49.474;2022-09-09T11:42:06;17.90;;;5.00;;
65387;SDS011;51992;53.528;49.474;2022-09-09T11:44:33;16.80;;;2.53;;
65387;SDS011;51992;53.528;49.474;2022-09-09T11:46:59;22.75;;;7.55;;
65387;SDS011;51992;53.528;49.474;2022-09-09T11:49:29;37.15;;;14.48;;
65387;SDS011;51992;53.528;49.474;2022-09-09T11:51:56;25.30;;;6.78;;
65387;SDS011;51992;53.528;49.474;2022-09-09T11:56:51;2.50;;;0.57;;
65387;SDS011;51992;53.528;49.474;2022-09-09T11:59:21;3.50;;;0.40;;
65387;SDS011;51992;53.528;49.474;2022-09-09T12:01:54;7.18;;;1.15;;
65387;SDS011;51992;53.528;49.474;2022-09-09T12:06:52;3.22;;;0.85;;
65387;SDS011;51992;53.528;49.474;2022-09-09T12:09:27;6.85;;;0.75;;
65387;SDS011;51992;53.528;49.474;2022-09-09T12:12:04;6.50;;;0.82;;
65387;SDS011;51992;53.528;49.474;2022-09-09T12:14:36;12.02;;;2.08;;
65387;SDS011;51992;53.528;49.474;2022-09-09T12:19:28;5.15;;;0.75;;
65387;SDS011;51992;53.528;49.474;2022-09-09T12:22:16;5.72;;;0.70;;
65387;SDS011;51992;53.528;49.474;2022-09-09T12:27:43;3.47;;;0.40;;
65387;SDS011;51992;53.528;49.474;2022-09-09T12:30:12;0.50;;;0.32;;
65387;SDS011;51992;53.528;49.474;2022-09-09T12:32:42;9.23;;;1.35;;
65387;SDS011;51992;53.528;49.474;2022-09-09T12:35:11;3.70;;;0.63;;
65387;SDS011;51992;53.528;49.474;2022-09-09T12:37:43;11.27;;;2.28;;
65387;SDS011;51992;53.528;49.474;2022-09-09T12:40:22;3.97;;;1.27;;
65387;SDS011;51992;53.528;49.474;2022-09-09T12:42:48;3.20;;;0.90;;
65387;SDS011;51992;53.528;49.474;2022-09-09T12:45:18;4.13;;;1.00;;
65387;SDS011;51992;53.528;49.474;2022-09-09T12:47:45;10.95;;;1.13;;
65387;SDS011;51992;53.528;49.474;2022-09-09T12:50:17;4.10;;;1.20;;
65387;SDS011;51992;53.528;49.474;2022-09-09T12:52:44;12.95;;;1.55;;
65387;SDS011;51992;53.528;49.474;2022-09-09T12:55:23;1.35;;;0.50;;
65387;SDS011;51992;53.528;49.474;2022-09-09T12:57:53;1.77;;;0.68;;
65387;SDS011;51992;53.528;49.474;2022-09-09T13:00:23;19.48;;;2.35;;
65387;SDS011;51992;53.528;49.474;2022-09-09T13:02:54;4.88;;;0.65;;
65387;SDS011;51992;53.528;49.474;2022-09-09T13:05:22;5.80;;;1.15;;
65387;SDS011;51992;53.528;49.474;2022-09-09T13:07:48;7.05;;;1.35;;
65387;SDS011;51992;53.528;49.474;2022-09-09T13:10:15;7.22;;;1.40;;
65387;SDS011;51992;53.528;49.474;2022-09-09T13:12:46;2.38;;;1.05;;
65387;SDS011;51992;53.528;49.474;2022-09-09T13:15:19;10.02;;;0.90;;
65387;SDS011;51992;53.528;49.474;2022-09-09T13:17:59;8.85;;;1.40;;
65387;SDS011;51992;53.528;49.474;2022-09-09T13:20:27;2.40;;;1.42;;
65387;SDS011;51992;53.528;49.474;2022-09-09T13:22:53;17.02;;;2.85;;
65387;SDS011;51992;53.528;49.474;2022-09-09T13:27:53;5.05;;;1.40;;
65387;SDS011;51992;53.528;49.474;2022-09-09T13:35:29;11.70;;;1.92;;
65387;SDS011;51992;53.528;49.474;2022-09-09T13:37:55;2.30;;;0.80;;
65387;SDS011;51992;53.528;49.474;2022-09-09T13:40:21;9.95;;;3.03;;
65387;SDS011;51992;53.528;49.474;2022-09-09T13:42:50;31.88;;;13.23;;
65387;SDS011;51992;53.528;49.474;2022-09-09T13:45:18;29.25;;;11.82;;
65387;SDS011;51992;53.528;49.474;2022-09-09T13:47:47;5.47;;;2.70;;
65387;SDS011;51992;53.528;49.474;2022-09-09T13:50:18;5.22;;;2.47;;
65387;SDS011;51992;53.528;49.474;2022-09-09T13:52:44;3.97;;;0.80;;
65387;SDS011;51992;53.528;49.474;2022-09-09T13:55:10;7.05;;;1.10;;
65387;SDS011;51992;53.528;49.474;2022-09-09T13:57:36;2.13;;;1.42;;
65387;SDS011;51992;53.528;49.474;2022-09-09T14:00:02;1.40;;;1.30;;
65387;SDS011;51992;53.528;49.474;2022-09-09T14:02:28;3.13;;;1.75;;
65387;SDS011;51992;53.528;49.474;2022-09-09T14:04:54;5.72;;;1.65;;
65387;SDS011;51992;53.528;49.474;2022-09-09T14:07:21;6.75;;;2.00;;
65387;SDS011;51992;53.528;49.474;2022-09-09T14:09:46;5.88;;;1.33;;
65387;SDS011;51992;53.528;49.474;2022-09-09T14:12:18;3.92;;;1.90;;
65387;SDS011;51992;53.528;49.474;2022-09-09T14:14:43;7.43;;;2.80;;
65387;SDS011;51992;53.528;49.474;2022-09-09T14:17:10;6.97;;;3.03;;
65387;SDS011;51992;53.528;49.474;2022-09-09T14:19:36;5.43;;;1.80;;
65387;SDS011;51992;53.528;49.474;2022-09-09T14:22:02;8.73;;;2.20;;
65387;SDS011;51992;53.528;49.474;2022-09-09T14:24:28;12.32;;;1.88;;
65387;SDS011;51992;53.528;49.474;2022-09-09T14:26:54;16.50;;;2.20;;
65387;SDS011;51992;53.528;49.474;2022-09-09T14:29:20;4.80;;;1.02;;
65387;SDS011;51992;53.528;49.474;2022-09-09T14:31:45;5.47;;;1.48;;
65387;SDS011;51992;53.528;49.474;2022-09-09T14:34:11;3.05;;;0.77;;
65387;SDS011;51992;53.528;49.474;2022-09-09T14:36:40;2.47;;;0.50;;
65387;SDS011;51992;53.528;49.474;2022-09-09T14:39:07;4.20;;;1.17;;
65387;SDS011;51992;53.528;49.474;2022-09-09T14:41:32;8.27;;;1.10;;
65387;SDS011;51992;53.528;49.474;2022-09-09T14:43:58;3.10;;;1.30;;
65387;SDS011;51992;53.528;49.474;2022-09-09T14:46:26;6.50;;;0.90;;
65387;SDS011;51992;53.528;49.474;2022-09-09T14:48:52;1.50;;;0.70;;
65387;SDS011;51992;53.528;49.474;2022-09-09T14:51:19;3.42;;;1.40;;
65387;SDS011;51992;53.528;49.474;2022-09-09T14:53:50;3.58;;;1.25;;
65387;SDS011;51992;53.528;49.474;2022-09-09T14:56:17;2.80;;;1.08;;
65387;SDS011;51992;53.528;49.474;2022-09-09T14:58:44;6.60;;;1.20;;
65387;SDS011;51992;53.528;49.474;2022-09-09T15:01:19;10.35;;;1.40;;
65387;SDS011;51992;53.528;49.474;2022-09-09T15:03:53;2.28;;;0.88;;
65387;SDS011;51992;53.528;49.474;2022-09-09T15:06:19;2.53;;;0.93;;
65387;SDS011;51992;53.528;49.474;2022-09-09T15:08:45;3.17;;;0.95;;
65387;SDS011;51992;53.528;49.474;2022-09-09T15:11:12;25.58;;;11.30;;
65387;SDS011;51992;53.528;49.474;2022-09-09T15:13:39;28.83;;;12.10;;
65387;SDS011;51992;53.528;49.474;2022-09-09T15:18:31;37.95;;;16.00;;
65387;SDS011;51992;53.528;49.474;2022-09-09T15:21:02;40.80;;;19.90;;
65387;SDS011;51992;53.528;49.474;2022-09-09T15:23:28;48.20;;;20.65;;
65387;SDS011;51992;53.528;49.474;2022-09-09T15:25:56;51.42;;;23.75;;
65387;SDS011;51992;53.528;49.474;2022-09-09T15:28:22;48.67;;;20.83;;
65387;SDS011;51992;53.528;49.474;2022-09-09T15:30:51;36.95;;;17.45;;
65387;SDS011;51992;53.528;49.474;2022-09-09T15:33:18;39.47;;;16.88;;
65387;SDS011;51992;53.528;49.474;2022-09-09T15:35:43;46.00;;;15.57;;
65387;SDS011;51992;53.528;49.474;2022-09-09T15:38:09;28.30;;;12.45;;
65387;SDS011;51992;53.528;49.474;2022-09-09T15:40:35;41.33;;;20.20;;
65387;SDS011;51992;53.528;49.474;2022-09-09T15:43:01;38.55;;;17.90;;
65387;SDS011;51992;53.528;49.474;2022-09-09T15:45:28;42.88;;;19.85;;
65387;SDS011;51992;53.528;49.474;2022-09-09T15:47:57;32.00;;;15.57;;
65387;SDS011;51992;53.528;49.474;2022-09-09T15:50:23;40.65;;;18.17;;
65387;SDS011;51992;53.528;49.474;2022-09-09T15:52:49;43.20;;;19.88;;
65387;SDS011;51992;53.528;49.474;2022-09-09T15:55:14;35.42;;;13.82;;
65387;SDS011;51992;53.528;49.474;2022-09-09T15:57:40;37.03;;;17.95;;
65387;SDS011;51992;53.528;49.474;2022-09-09T16:00:06;30.80;;;14.90;;
65387;SDS011;51992;53.528;49.474;2022-09-09T16:02:32;39.60;;;19.17;;
65387;SDS011;51992;53.528;49.474;2022-09-09T16:04:58;36.25;;;16.77;;
65387;SDS011;51992;53.528;49.474;2022-09-09T16:07:26;38.42;;;16.67;;
65387;SDS011;51992;53.528;49.474;2022-09-09T16:09:52;30.65;;;13.80;;
65387;SDS011;51992;53.528;49.474;2022-09-09T16:12:18;34.20;;;15.52;;
65387;SDS011;51992;53.528;49.474;2022-09-09T16:14:44;30.75;;;14.65;;
65387;SDS011;51992;53.528;49.474;2022-09-09T16:17:10;37.80;;;17.33;;
65387;SDS011;51992;53.528;49.474;2022-09-09T16:19:36;49.55;;;23.90;;
65387;SDS011;51992;53.528;49.474;2022-09-09T16:22:03;43.65;;;18.83;;
65387;SDS011;51992;53.528;49.474;2022-09-09T16:24:29;42.13;;;20.77;;